Time;durP1;ratioP1;P1;durP2;ratioP2;P2;SDS_P1;SDS_P2;PMS_P1;PMS_P2;Temp;Humidity;BMP_temperature;BMP_pressure;BME280_temperature;BME280_humidity;BME280_pressure;Samples;Min_cycle;Max_cycle;Signal;HPM_P1;HPM_P2
2023/02/15 00:01:37;;;;;;;;;29.25;27.00;;;;;22.46;36.44;102083.63;4952232;28;46164;-66
2023/02/15 00:04:07;;;;;;;;;32.00;29.25;;;;;22.46;36.25;102080.09;4952836;28;45393;-67
2023/02/15 00:06:33;;;;;;;;;37.25;28.50;;;;;22.45;36.54;102081.91;4952364;28;45590;-66
2023/02/15 00:08:58;;;;;;;;;33.00;27.25;;;;;22.45;36.65;102078.38;4952381;28;56972;-66
2023/02/15 00:11:39;;;;;;;;;31.00;26.25;;;;;22.44;36.32;102074.00;4953437;28;45535;-66
2023/02/15 00:14:13;;;;;;;;;27.00;24.25;;;;;22.43;36.61;102067.78;4950452;28;45933;-66
2023/02/15 00:16:40;;;;;;;;;39.50;29.50;;;;;22.42;36.39;102068.75;4950774;28;47218;-66
2023/02/15 00:19:05;;;;;;;;;31.00;28.50;;;;;22.36;36.05;102056.59;4952996;28;46215;-67
2023/02/15 00:21:32;;;;;;;;;35.50;29.50;;;;;22.42;36.49;102062.56;4959223;28;45281;-67
2023/02/15 00:23:59;;;;;;;;;34.00;28.00;;;;;22.41;36.20;102061.66;4955979;28;45996;-66
2023/02/15 00:26:25;;;;;;;;;32.25;26.00;;;;;22.39;36.15;102057.38;4952586;28;45597;-67
2023/02/15 00:28:51;;;;;;;;;31.00;27.25;;;;;22.39;36.43;102052.03;4953474;28;45589;-66
2023/02/15 00:31:16;;;;;;;;;32.25;27.75;;;;;22.39;36.57;102050.22;4955983;28;46192;-66
2023/02/15 00:33:42;;;;;;;;;30.00;27.25;;;;;22.39;36.09;102052.91;4949294;28;67321;-66
2023/02/15 00:36:09;;;;;;;;;32.50;28.25;;;;;22.37;36.00;102047.66;4955557;28;58706;-66
2023/02/15 00:38:35;;;;;;;;;30.50;29.00;;;;;22.37;36.06;102050.31;4947907;28;45691;-66
2023/02/15 00:41:02;;;;;;;;;31.75;27.50;;;;;22.36;36.42;102043.28;4957351;28;45361;-66
2023/02/15 00:43:28;;;;;;;;;38.75;31.25;;;;;22.35;36.15;102046.88;4952867;28;45901;-66
2023/02/15 00:45:54;;;;;;;;;33.75;28.75;;;;;22.33;36.45;102039.91;4958874;28;45300;-66
2023/02/15 00:48:19;;;;;;;;;28.50;26.25;;;;;22.33;36.25;102032.78;4949061;28;45473;-66
2023/02/15 00:50:46;;;;;;;;;33.00;29.50;;;;;22.34;36.12;102034.47;4957438;28;45416;-66
2023/02/15 00:53:12;;;;;;;;;35.50;28.75;;;;;22.32;36.08;102031.03;4950206;28;45971;-66
2023/02/15 00:55:39;;;;;;;;;34.00;28.25;;;;;22.31;36.28;102025.78;4958384;28;45304;-66
2023/02/15 00:58:05;;;;;;;;;28.50;25.25;;;;;22.32;36.00;102032.84;4952747;28;45263;-66
2023/02/15 01:00:30;;;;;;;;;31.50;27.50;;;;;22.31;36.23;102034.66;4954088;28;46193;-66
2023/02/15 01:02:56;;;;;;;;;33.50;29.50;;;;;22.31;36.42;102040.00;4953438;28;66480;-66
2023/02/15 01:05:21;;;;;;;;;31.00;29.75;;;;;22.29;36.11;102031.22;4956364;28;45179;-67
2023/02/15 01:07:46;;;;;;;;;29.50;26.50;;;;;22.30;36.49;102032.94;4954364;28;57234;-66
2023/02/15 01:10:12;;;;;;;;;30.25;26.75;;;;;22.30;36.46;102029.41;4955304;28;46385;-66
2023/02/15 01:12:37;;;;;;;;;30.75;21.50;;;;;22.29;35.99;102036.56;4961988;28;58395;-66
2023/02/15 01:15:03;;;;;;;;;29.75;27.00;;;;;22.29;36.02;102028.56;4952981;28;62224;-66
2023/02/15 01:17:28;;;;;;;;;29.75;27.25;;;;;22.29;35.95;102030.34;4950234;28;45647;-66
2023/02/15 01:19:53;;;;;;;;;28.00;25.50;;;;;22.27;36.36;102026.91;4956117;28;46069;-66
2023/02/15 01:22:19;;;;;;;;;30.25;29.75;;;;;22.27;35.81;102030.44;4958107;28;61554;-66
2023/02/15 01:24:44;;;;;;;;;32.25;28.00;;;;;22.26;36.06;102023.34;4947144;28;45293;-66
2023/02/15 01:27:09;;;;;;;;;29.75;25.75;;;;;22.25;36.38;102024.28;4948701;28;57414;-66
2023/02/15 01:29:35;;;;;;;;;30.25;27.25;;;;;22.23;36.45;102015.53;4966093;28;54617;-66
2023/02/15 01:32:00;;;;;;;;;35.00;30.00;;;;;22.23;36.51;102017.34;4956115;28;45360;-66
2023/02/15 01:34:26;;;;;;;;;29.25;26.00;;;;;22.23;36.29;102020.00;4953820;28;61870;-66
2023/02/15 01:36:51;;;;;;;;;38.75;30.00;;;;;22.21;35.91;102020.09;4960984;28;53153;-66
2023/02/15 01:39:16;;;;;;;;;30.50;27.75;;;;;22.21;36.08;102014.75;4952141;28;45502;-66
2023/02/15 01:41:42;;;;;;;;;37.50;30.25;;;;;22.21;35.99;102013.91;4951954;28;52928;-66
2023/02/15 01:45:02;;;;;;;;;35.75;28.50;;;;;22.19;35.98;102020.16;4952858;28;56624;-66
2023/02/15 01:47:54;;;;;;;;;28.25;27.50;;;;;22.18;36.01;102013.09;4954282;28;45453;-66
2023/02/15 01:50:39;;;;;;;;;30.50;27.50;;;;;22.16;36.47;102017.66;4958759;28;46373;-66
2023/02/15 01:53:13;;;;;;;;;30.00;25.75;;;;;22.16;36.24;102022.16;4954321;28;45856;-66
2023/02/15 01:55:52;;;;;;;;;38.50;30.00;;;;;22.17;36.45;102021.22;4954479;28;45644;-66
2023/02/15 01:58:18;;;;;;;;;34.50;30.00;;;;;22.16;36.32;102019.47;4966781;28;45487;-66
2023/02/15 02:00:44;;;;;;;;;36.00;29.25;;;;;22.15;36.30;102012.41;4956106;28;46096;-66
2023/02/15 02:03:10;;;;;;;;;31.75;27.75;;;;;22.11;35.84;102006.38;4953113;28;45418;-66
2023/02/15 02:05:35;;;;;;;;;37.50;31.50;;;;;22.13;36.32;102007.19;4954820;28;62720;-66
2023/02/15 02:08:01;;;;;;;;;31.00;28.25;;;;;22.14;36.30;102005.38;4950711;28;61094;-66
2023/02/15 02:10:27;;;;;;;;;38.75;30.00;;;;;22.12;36.20;102008.13;4949892;28;45731;-66
2023/02/15 02:12:59;;;;;;;;;29.25;28.50;;;;;22.11;36.33;102005.53;4954390;28;46006;-66
2023/02/15 02:15:37;;;;;;;;;34.75;30.00;;;;;22.10;36.11;102001.16;4957298;28;45502;-66
2023/02/15 02:18:05;;;;;;;;;27.75;25.75;;;;;22.09;36.00;101996.78;4948569;28;45680;-66
2023/02/15 02:20:55;;;;;;;;;34.00;28.75;;;;;22.09;35.79;101994.09;4952307;27;45510;-66
2023/02/15 02:23:25;;;;;;;;;29.25;28.50;;;;;22.07;36.22;102004.00;4944778;28;45557;-66
2023/02/15 02:26:18;;;;;;;;;35.75;29.00;;;;;22.07;36.12;101996.00;4953176;28;45396;-66
2023/02/15 02:29:05;;;;;;;;;13.25;4.25;;;;;22.06;36.11;101997.81;4950910;28;45410;-66
2023/02/15 02:31:52;;;;;;;;;26.50;25.25;;;;;22.06;35.89;101996.94;4949931;28;45585;-66
2023/02/15 02:34:29;;;;;;;;;34.00;29.00;;;;;22.04;36.32;101989.00;4951342;28;46102;-66
2023/02/15 02:37:23;;;;;;;;;30.25;26.50;;;;;22.05;36.33;101988.09;4946663;28;45338;-66
2023/02/15 02:40:03;;;;;;;;;30.75;28.25;;;;;22.04;35.79;101985.50;4950964;28;45661;-66
2023/02/15 02:42:41;;;;;;;;;33.50;30.00;;;;;22.03;36.40;101986.44;4954521;28;46079;-66
2023/02/15 02:45:09;;;;;;;;;32.25;29.00;;;;;22.02;36.21;101979.41;4951714;28;45482;-66
2023/02/15 02:47:48;;;;;;;;;36.00;29.75;;;;;22.02;36.22;101982.91;4951155;28;45593;-66
2023/02/15 02:50:17;;;;;;;;;38.25;31.25;;;;;22.01;35.89;101975.88;4952549;28;45352;-66
2023/02/15 02:52:47;;;;;;;;;35.25;30.75;;;;;21.99;36.17;101978.63;4948817;28;47346;-66
2023/02/15 02:55:21;;;;;;;;;32.75;27.00;;;;;22.01;35.72;101973.22;4952218;28;45294;-66
2023/02/15 02:57:54;;;;;;;;;32.25;30.00;;;;;21.99;35.81;101975.97;4954356;28;45383;-66
2023/02/15 03:00:21;;;;;;;;;36.25;29.75;;;;;21.99;36.21;101967.09;4951474;28;45457;-66
2023/02/15 03:02:49;;;;;;;;;32.00;28.25;;;;;21.98;36.25;101976.03;4951384;28;47041;-66
2023/02/15 03:05:20;;;;;;;;;31.00;27.50;;;;;21.98;35.75;101973.38;4949837;28;45296;-67
2023/02/15 03:07:50;;;;;;;;;31.50;26.50;;;;;21.97;36.07;101976.97;4952892;28;45319;-66
2023/02/15 03:10:16;;;;;;;;;32.75;30.00;;;;;21.94;35.85;101980.69;4958279;28;45428;-66
2023/02/15 03:12:41;;;;;;;;;33.50;30.25;;;;;21.93;35.84;101967.44;4944491;28;45882;-66
2023/02/15 03:15:11;;;;;;;;;33.50;29.75;;;;;21.95;36.10;101976.19;4947736;28;50774;-66
2023/02/15 03:17:42;;;;;;;;;33.00;29.00;;;;;21.95;35.73;101976.19;4951432;28;45368;-66
2023/02/15 03:20:12;;;;;;;;;35.00;30.00;;;;;21.95;35.74;101978.88;4956730;28;45512;-66
2023/02/15 03:22:42;;;;;;;;;31.50;29.00;;;;;21.94;36.31;101975.34;4953635;28;46298;-66
2023/02/15 03:25:16;;;;;;;;;35.75;28.75;;;;;21.91;35.75;101983.50;4950388;28;45279;-66
2023/02/15 03:27:51;;;;;;;;;33.00;29.50;;;;;21.92;35.79;101982.59;4950770;28;45332;-66
2023/02/15 03:30:18;;;;;;;;;33.50;30.00;;;;;21.92;36.09;101979.91;4953328;28;46800;-66
2023/02/15 03:32:44;;;;;;;;;34.25;30.25;;;;;21.90;35.63;101973.81;4946451;28;46398;-66
2023/02/15 03:35:09;;;;;;;;;36.00;30.25;;;;;21.91;36.24;101970.19;4948834;28;53374;-66
2023/02/15 03:37:40;;;;;;;;;33.25;29.00;;;;;21.90;35.70;101967.59;4946467;28;61686;-66
2023/02/15 03:43:44;;;;;;;;;38.50;31.50;;;;;21.89;35.67;101971.22;4947224;28;45836;-66
2023/02/15 03:46:27;;;;;;;;;37.75;33.00;;;;;21.88;35.79;101967.69;4947622;28;46225;-66
2023/02/15 03:48:55;;;;;;;;;34.25;28.00;;;;;21.89;36.22;101965.91;4947344;28;45574;-66
2023/02/15 03:51:34;;;;;;;;;39.50;30.25;;;;;21.88;35.73;101965.00;4943805;28;45438;-66
2023/02/15 03:54:02;;;;;;;;;31.50;30.00;;;;;21.88;36.19;101970.34;4946408;28;46138;-66
2023/02/15 03:56:27;;;;;;;;;37.00;29.00;;;;;21.87;35.61;101971.31;4950261;28;45362;-66
2023/02/15 04:01:58;;;;;;;;;47.25;34.00;;;;;21.85;35.81;101961.66;4956204;28;45570;-66
2023/02/15 04:04:29;;;;;;;;;30.00;24.50;;;;;21.85;35.67;101961.66;4951772;28;46062;-66
2023/02/15 04:06:54;;;;;;;;;39.50;31.75;;;;;21.83;35.71;101964.41;4953307;28;45842;-66
2023/02/15 04:12:03;;;;;;;;;28.25;27.00;;;;;21.83;35.69;101968.88;4954620;28;45824;-66
2023/02/15 04:17:12;;;;;;;;;32.25;29.00;;;;;21.80;36.11;101973.44;4952023;28;45950;-66
2023/02/15 04:25:12;;;;;;;;;36.75;30.25;;;;;21.79;35.54;101969.03;4959144;28;45765;-66
2023/02/15 04:27:38;;;;;;;;;32.25;29.75;;;;;21.77;36.02;101962.94;4957404;28;46022;-66
2023/02/15 04:30:04;;;;;;;;;32.25;28.50;;;;;21.76;35.61;101961.25;4958254;28;46128;-66
2023/02/15 04:32:29;;;;;;;;;38.00;27.75;;;;;21.76;36.09;101961.25;4951470;28;45449;-66
2023/02/15 04:34:55;;;;;;;;;27.75;25.25;;;;;21.77;35.66;101959.44;4955151;28;67282;-66
2023/02/15 04:37:20;;;;;;;;;31.75;28.25;;;;;21.76;35.90;101960.34;4952185;28;67973;-66
2023/02/15 04:39:45;;;;;;;;;37.00;30.00;;;;;21.75;35.67;101959.50;4954766;28;62503;-66
2023/02/15 04:42:11;;;;;;;;;27.25;23.50;;;;;21.75;35.54;101961.31;4956102;28;45550;-66
2023/02/15 04:44:36;;;;;;;;;35.25;29.25;;;;;21.74;36.03;101962.25;4953310;28;50720;-66
2023/02/15 04:47:01;;;;;;;;;33.25;27.00;;;;;21.75;35.77;101970.16;4948715;28;61342;-66
2023/02/15 04:49:27;;;;;;;;;31.50;28.75;;;;;21.76;35.87;101973.69;4953965;28;45613;-66
2023/02/15 04:51:52;;;;;;;;;37.00;28.00;;;;;21.77;35.41;101962.09;4951386;28;46839;-66
2023/02/15 04:54:17;;;;;;;;;35.75;29.25;;;;;21.77;35.44;101959.44;4950212;28;55361;-66
2023/02/15 04:56:43;;;;;;;;;29.50;26.00;;;;;21.76;35.45;101952.38;4954526;28;47126;-66
2023/02/15 04:59:12;;;;;;;;;34.75;29.75;;;;;21.78;35.36;101946.03;4951470;28;45507;-67
2023/02/15 05:01:37;;;;;;;;;32.75;29.75;;;;;21.78;35.47;101951.34;4958186;28;45637;-67
2023/02/15 05:04:03;;;;;;;;;34.00;30.00;;;;;21.78;35.43;101948.69;4954663;28;68347;-67
2023/02/15 05:06:28;;;;;;;;;29.50;25.25;;;;;21.79;35.53;101953.06;4956820;28;65642;-67
2023/02/15 05:08:53;;;;;;;;;37.00;30.75;;;;;21.78;35.59;101956.69;4953862;28;45507;-67
2023/02/15 05:11:19;;;;;;;;;30.50;27.00;;;;;21.79;35.09;101954.88;4968868;28;54867;-67
2023/02/15 05:13:44;;;;;;;;;34.00;30.75;;;;;21.78;35.09;101959.34;4953888;28;62147;-67
2023/02/15 05:16:10;;;;;;;;;26.25;25.50;;;;;21.79;35.06;101960.19;4955255;28;66022;-67
2023/02/15 05:18:35;;;;;;;;;30.50;29.50;;;;;21.78;35.35;101951.34;4951153;28;45490;-67
2023/02/15 05:21:00;;;;;;;;;35.25;28.50;;;;;21.76;34.94;101945.25;4960431;28;45426;-67
2023/02/15 05:23:26;;;;;;;;;34.00;27.75;;;;;21.79;35.55;101950.38;4951160;28;63647;-67
2023/02/15 05:28:36;;;;;;;;;37.00;27.75;;;;;21.79;35.24;101950.38;4953278;28;45619;-66
2023/02/15 05:31:06;;;;;;;;;38.25;30.00;;;;;21.79;35.50;101953.06;4959400;28;45424;-67
2023/02/15 05:33:32;;;;;;;;;29.50;28.75;;;;;21.79;35.45;101949.53;4956155;28;45464;-66
2023/02/15 05:35:57;;;;;;;;;37.75;28.75;;;;;21.78;35.05;101946.03;4955467;28;45462;-67
2023/02/15 05:38:23;;;;;;;;;29.75;28.50;;;;;21.77;35.23;101944.28;4951321;28;45423;-67
2023/02/15 05:40:48;;;;;;;;;33.25;28.50;;;;;21.79;35.44;101947.72;4956655;28;64772;-67
2023/02/15 05:43:13;;;;;;;;;30.25;26.00;;;;;21.79;35.24;101944.22;4951147;28;57132;-67
2023/02/15 05:45:38;;;;;;;;;31.75;28.75;;;;;21.79;35.39;101944.22;4969854;28;57969;-67
2023/02/15 05:48:04;;;;;;;;;34.50;30.00;;;;;21.80;34.86;101951.28;4951271;28;45499;-67
2023/02/15 05:50:29;;;;;;;;;31.00;24.50;;;;;21.78;34.98;101943.34;4955482;28;64835;-67
2023/02/15 05:52:54;;;;;;;;;30.00;26.25;;;;;21.78;34.89;101940.69;4953686;28;45316;-67
2023/02/15 05:55:20;;;;;;;;;33.75;29.50;;;;;21.79;34.79;101944.22;4948658;28;63268;-66
2023/02/15 05:57:45;;;;;;;;;20.75;14.50;;;;;21.79;35.23;101942.41;4953830;28;62669;-67
2023/02/15 06:00:12;;;;;;;;;34.00;29.25;;;;;21.79;34.84;101944.22;4957678;28;45427;-67
2023/02/15 06:02:38;;;;;;;;;31.50;27.50;;;;;21.79;35.21;101944.22;4951402;28;46337;-67
2023/02/15 06:05:04;;;;;;;;;31.50;28.00;;;;;21.78;34.89;101939.84;4951980;28;45284;-66
2023/02/15 06:07:30;;;;;;;;;33.00;28.00;;;;;21.77;34.86;101938.97;4957422;28;45297;-67
2023/02/15 06:09:55;;;;;;;;;34.00;28.50;;;;;21.78;35.06;101937.19;4956845;28;45299;-67
2023/02/15 06:12:20;;;;;;;;;29.50;27.50;;;;;21.77;34.68;101933.63;4941672;28;64190;-67
2023/02/15 06:14:46;;;;;;;;;32.50;26.50;;;;;21.77;35.12;101938.09;4948270;28;68347;-67
2023/02/15 06:17:11;;;;;;;;;30.75;28.00;;;;;21.76;35.04;101936.38;4955623;28;45390;-67
2023/02/15 06:19:37;;;;;;;;;32.25;26.50;;;;;21.76;34.80;101931.03;4955694;28;46931;-67
2023/02/15 06:22:02;;;;;;;;;34.50;29.00;;;;;21.75;35.17;101929.34;4956243;28;55572;-66
2023/02/15 06:24:28;;;;;;;;;28.00;24.00;;;;;21.73;35.13;101924.09;4933312;28;47444;-67
2023/02/15 06:26:53;;;;;;;;;36.75;27.00;;;;;21.73;35.15;101932.09;4957412;28;50758;-67
2023/02/15 06:29:18;;;;;;;;;32.00;25.50;;;;;21.75;35.24;101938.19;4963065;28;45419;-67
2023/02/15 06:31:44;;;;;;;;;29.25;26.75;;;;;21.73;35.00;101931.25;4950794;28;57556;-70
2023/02/15 06:34:09;;;;;;;;;31.50;28.25;;;;;21.75;35.22;101937.34;4956208;28;45574;-68
2023/02/15 06:36:35;;;;;;;;;33.00;29.50;;;;;21.75;34.67;101937.34;4956751;28;45551;-69
2023/02/15 06:39:02;;;;;;;;;44.75;36.25;;;;;21.75;34.73;101948.00;4936182;28;45591;-68
2023/02/15 06:41:27;;;;;;;;;59.25;45.50;;;;;21.66;34.23;101953.84;4960423;28;48093;-71
2023/02/15 06:43:52;;;;;;;;;60.00;48.00;;;;;21.42;34.21;101947.06;4951182;28;60733;-71
2023/02/15 06:46:18;;;;;;;;;62.00;49.00;;;;;21.15;34.00;101943.19;4956306;28;45336;-70
2023/02/15 06:48:43;;;;;;;;;61.25;45.75;;;;;20.95;34.29;101937.09;4948695;28;67583;-67
2023/02/15 06:51:08;;;;;;;;;55.00;44.75;;;;;20.85;34.70;101928.69;4956687;28;48072;-75
2023/02/15 06:53:35;;;;;;;;;63.75;47.75;;;;;20.83;34.20;101935.91;4954567;28;56940;-74
2023/02/15 06:56:06;;;;;;;;;61.50;47.75;;;;;20.79;34.25;101941.47;4959688;28;45380;-73
2023/02/15 06:58:33;;;;;;;;;59.50;45.25;;;;;20.76;34.55;101937.16;4956376;28;45644;-73
2023/02/15 07:00:58;;;;;;;;;52.50;41.25;;;;;20.80;34.92;101943.19;4955326;28;45502;-72
2023/02/15 07:03:24;;;;;;;;;46.25;36.25;;;;;20.87;35.17;101949.91;4955069;28;45449;-75
2023/02/15 07:05:54;;;;;;;;;50.25;38.75;;;;;20.97;35.34;101960.97;4948933;28;45931;-74
2023/02/15 07:08:19;;;;;;;;;46.00;36.75;;;;;21.01;35.86;101960.72;4952510;28;45558;-74
2023/02/15 07:10:45;;;;;;;;;45.00;36.00;;;;;21.12;35.93;101975.28;4956363;28;45433;-73
2023/02/15 07:13:10;;;;;;;;;46.00;34.25;;;;;21.19;35.92;101980.19;4947820;28;67850;-72
2023/02/15 07:15:35;;;;;;;;;49.25;38.00;;;;;21.26;35.71;101987.88;4950746;28;63126;-72
2023/02/15 07:18:01;;;;;;;;;42.00;32.75;;;;;21.29;35.80;101983.25;4966909;28;61376;-72
2023/02/15 07:20:26;;;;;;;;;42.00;33.50;;;;;21.36;36.04;101981.97;4955523;28;46458;-68
2023/02/15 07:22:51;;;;;;;;;43.50;33.25;;;;;21.38;36.44;101977.44;4953609;28;45514;-69
2023/02/15 07:25:18;;;;;;;;;40.50;30.25;;;;;21.47;36.08;101988.59;4955489;28;57311;-65
2023/02/15 07:27:44;;;;;;;;;39.25;32.75;;;;;21.50;36.27;101986.63;4957536;28;45522;-66
2023/02/15 07:30:12;;;;;;;;;42.50;33.00;;;;;21.55;36.59;101981.91;4976337;28;47009;-65
2023/02/15 07:33:22;;;;;;;;;41.50;31.25;;;;;21.59;36.32;101980.78;4952542;28;46060;-65
2023/02/15 07:35:22;;;;;;;;;37.75;30.25;;;;;21.63;36.32;101986.81;4953131;28;45877;-65
2023/02/15 07:37:48;;;;;;;;;36.25;30.75;;;;;21.66;36.22;101986.66;4957928;28;58520;-65
2023/02/15 07:40:13;;;;;;;;;33.75;26.75;;;;;21.70;36.72;101988.19;4954908;28;66945;-64
2023/02/15 07:42:38;;;;;;;;;33.25;27.00;;;;;21.73;36.50;101989.84;4957529;28;66671;-65
2023/02/15 07:45:04;;;;;;;;;32.50;27.25;;;;;21.75;36.47;101995.97;4954011;28;60408;-65
2023/02/15 07:47:29;;;;;;;;;25.00;24.00;;;;;21.75;36.86;101991.47;4953618;28;45687;-64
2023/02/15 07:49:55;;;;;;;;;35.25;30.75;;;;;21.79;36.96;101989.50;4958433;28;67997;-65
2023/02/15 07:52:20;;;;;;;;;34.50;30.00;;;;;21.80;36.66;101988.56;4957941;28;63511;-65
2023/02/15 07:54:45;;;;;;;;;34.75;28.25;;;;;21.83;36.53;101992.88;4955608;28;54244;-65
2023/02/15 07:57:14;;;;;;;;;32.50;28.25;;;;;21.84;36.83;102000.78;4939877;28;65338;-65
2023/02/15 07:59:39;;;;;;;;;35.50;30.75;;;;;21.85;36.38;101998.97;4952634;28;46665;-65
2023/02/15 08:02:09;;;;;;;;;32.00;27.75;;;;;21.86;36.71;101993.56;4950090;28;45874;-66
2023/02/15 08:04:34;;;;;;;;;35.75;29.75;;;;;21.88;36.76;101997.00;4953302;28;45546;-65
2023/02/15 08:07:00;;;;;;;;;33.00;29.50;;;;;21.87;36.27;101992.63;4957736;28;45433;-65
2023/02/15 08:09:25;;;;;;;;;32.50;29.50;;;;;21.91;36.42;101996.84;4953955;28;46095;-65
2023/02/15 08:11:51;;;;;;;;;36.75;26.75;;;;;21.93;36.19;101994.09;4957220;28;64374;-64
2023/02/15 08:14:18;;;;;;;;;34.75;30.25;;;;;21.94;36.62;101995.81;4954665;28;48314;-65
2023/02/15 08:16:58;;;;;;;;;30.50;30.25;;;;;21.93;36.28;101992.28;4956830;28;45278;-65
2023/02/15 08:19:26;;;;;;;;;29.00;24.00;;;;;21.94;36.26;101980.69;4953083;28;46352;-66
2023/02/15 08:22:04;;;;;;;;;34.25;29.75;;;;;21.96;36.68;101986.78;4941114;28;45496;-66
2023/02/15 08:24:36;;;;;;;;;30.25;28.75;;;;;21.94;36.18;101985.16;4941196;28;45416;-65
2023/02/15 08:27:04;;;;;;;;;32.75;30.25;;;;;22.01;36.19;101994.53;4960729;28;46216;-65
2023/02/15 08:29:31;;;;;;;;;39.00;30.00;;;;;22.02;36.26;101990.06;4948527;28;47022;-68
2023/02/15 08:32:01;;;;;;;;;28.00;28.00;;;;;22.03;36.17;101995.31;4958271;27;45491;-65
2023/02/15 08:34:28;;;;;;;;;34.75;28.25;;;;;22.09;36.46;102002.09;5041717;28;45399;-67
2023/02/15 08:36:53;;;;;;;;;31.75;25.50;;;;;22.12;36.86;101999.28;4957320;28;45240;-66
2023/02/15 08:39:18;;;;;;;;;28.50;27.50;;;;;22.14;36.62;101995.56;4959486;27;45446;-66
2023/02/15 08:41:45;;;;;;;;;30.00;26.00;;;;;22.17;36.85;102006.06;4953958;28;65055;-66
2023/02/15 08:44:11;;;;;;;;;27.75;24.00;;;;;22.18;36.70;102002.44;4954202;28;45403;-68
2023/02/15 08:46:41;;;;;;;;;33.25;26.50;;;;;22.22;36.59;101999.59;4960669;28;45547;-66
2023/02/15 08:49:07;;;;;;;;;31.75;28.25;;;;;22.24;36.68;102005.72;4948017;28;46555;-66
2023/02/15 08:51:34;;;;;;;;;31.50;25.25;;;;;22.25;36.57;102002.97;4957271;28;45356;-66
2023/02/15 08:54:03;;;;;;;;;30.00;24.00;;;;;22.26;36.81;101998.50;4971818;28;45407;-66
2023/02/15 08:56:32;;;;;;;;;28.00;23.00;;;;;22.29;37.09;101987.69;4946950;28;45615;-66
2023/02/15 08:58:58;;;;;;;;;29.25;23.00;;;;;22.25;37.34;101981.63;4950736;28;45474;-66
2023/02/15 09:01:25;;;;;;;;;31.75;23.50;;;;;22.32;37.20;101998.19;4959039;28;45579;-65
2023/02/15 09:03:55;;;;;;;;;29.50;24.00;;;;;22.33;37.23;101986.56;4954137;28;45471;-65
2023/02/15 09:06:22;;;;;;;;;26.75;25.00;;;;;22.34;37.04;101994.47;4956239;28;45430;-65
2023/02/15 09:08:47;;;;;;;;;25.00;22.50;;;;;22.34;37.00;101989.13;4954514;28;46205;-66
2023/02/15 09:11:23;;;;;;;;;32.75;23.50;;;;;22.35;37.21;101982.88;4959162;28;45394;-66
2023/02/15 09:13:53;;;;;;;;;19.00;16.50;;;;;22.39;36.85;101982.69;4958027;28;45430;-66
2023/02/15 09:16:20;;;;;;;;;25.75;22.25;;;;;22.41;36.78;101984.31;4955826;28;45475;-66
2023/02/15 09:18:46;;;;;;;;;23.75;21.25;;;;;22.41;36.75;101978.13;4953687;28;46402;-66
2023/02/15 09:21:17;;;;;;;;;28.25;21.75;;;;;22.42;36.63;101985.19;4959239;28;45513;-66
2023/02/15 09:23:45;;;;;;;;;21.75;19.00;;;;;22.42;36.80;101978.03;4951528;28;45497;-66
2023/02/15 09:26:16;;;;;;;;;29.00;24.00;;;;;22.41;36.56;101978.97;4959758;28;45443;-66
2023/02/15 09:28:41;;;;;;;;;24.25;23.00;;;;;22.44;36.63;101988.63;4954658;28;45436;-65
2023/02/15 09:31:12;;;;;;;;;17.75;17.25;;;;;22.45;36.45;101993.88;4959401;28;49773;-65
2023/02/15 09:33:40;;;;;;;;;29.75;23.25;;;;;22.44;36.80;102000.16;4970327;28;45218;-66
2023/02/15 09:36:12;;;;;;;;;31.25;27.00;;;;;22.44;36.68;101999.31;4954691;28;45567;-65
2023/02/15 09:38:37;;;;;;;;;30.00;28.00;;;;;22.43;36.21;102002.91;4948926;28;46385;-65
2023/02/15 09:41:03;;;;;;;;;29.50;25.25;;;;;22.42;36.24;102006.53;4955183;28;56992;-66
2023/02/15 09:43:55;;;;;;;;;33.00;27.33;;;;;22.41;36.24;102011.00;4956670;28;45376;-66
2023/02/15 09:46:38;;;;;;;;;24.00;19.50;;;;;22.43;36.68;102006.41;4956192;28;47318;-66
2023/02/15 09:49:25;;;;;;;;;21.25;20.25;;;;;22.44;36.67;102010.81;4954858;28;45411;-66
2023/02/15 09:52:05;;;;;;;;;29.00;24.00;;;;;22.47;36.40;102007.09;4955336;28;45911;-66
2023/02/15 09:54:44;;;;;;;;;25.25;23.50;;;;;22.48;36.73;102020.34;4950688;28;45348;-65
2023/02/15 09:57:15;;;;;;;;;23.50;22.25;;;;;22.50;36.68;102025.63;4939824;28;45597;-65
2023/02/15 10:00:07;;;;;;;;;28.50;24.25;;;;;22.52;36.71;102026.38;4952012;28;45393;-65
2023/02/15 10:02:43;;;;;;;;;29.75;22.00;;;;;22.54;36.50;102021.81;4956643;28;45194;-66
2023/02/15 10:05:18;;;;;;;;;26.50;23.75;;;;;22.55;36.23;102013.72;4951873;28;45431;-66
2023/02/15 10:07:54;;;;;;;;;33.25;28.25;;;;;22.57;36.54;102018.97;4953026;28;45617;-66
2023/02/15 10:10:35;;;;;;;;;28.75;25.50;;;;;22.59;36.46;102010.88;4955937;28;46814;-67
2023/02/15 10:13:28;;;;;;;;;26.25;25.00;;;;;22.59;36.70;102011.75;4956431;28;46001;-67
2023/02/15 10:16:09;;;;;;;;;28.50;24.50;;;;;22.62;36.45;102010.72;4955293;28;45374;-66
2023/02/15 10:18:48;;;;;;;;;28.25;23.25;;;;;22.63;36.60;102017.75;4952236;28;45654;-66
2023/02/15 10:21:27;;;;;;;;;28.25;21.75;;;;;22.64;36.46;102016.81;4956747;28;45420;-66
2023/02/15 10:24:09;;;;;;;;;24.00;19.00;;;;;22.65;36.52;102024.75;4953548;28;45734;-66
2023/02/15 10:26:45;;;;;;;;;28.25;23.75;;;;;22.65;36.41;102030.09;4953913;28;45409;-65
2023/02/15 10:29:20;;;;;;;;;28.50;24.75;;;;;22.66;36.54;102022.94;4963183;28;45584;-65
2023/02/15 10:32:05;;;;;;;;;33.50;26.25;;;;;22.69;36.50;102030.75;4954851;28;45269;-66
2023/02/15 10:34:38;;;;;;;;;26.25;24.75;;;;;22.67;36.29;102016.66;4954462;28;45351;-66
2023/02/15 10:37:25;;;;;;;;;29.25;24.50;;;;;22.68;35.98;102023.69;4956766;28;45453;-67
2023/02/15 10:40:09;;;;;;;;;31.25;27.50;;;;;22.67;36.34;102019.31;4952351;28;45482;-66
2023/02/15 10:42:43;;;;;;;;;36.50;30.25;;;;;22.70;35.79;102027.13;4952697;28;46186;-68
2023/02/15 10:45:39;;;;;;;;;33.25;29.00;;;;;22.72;35.70;102026.13;4955233;28;45395;-67
2023/02/15 10:48:16;;;;;;;;;28.00;24.75;;;;;22.74;36.03;102020.69;4916470;28;45463;-67
2023/02/15 10:50:53;;;;;;;;;26.25;25.50;;;;;22.73;36.23;102017.16;4958387;28;45246;-66
2023/02/15 10:53:40;;;;;;;;;40.00;30.00;;;;;22.73;36.07;102017.16;4945463;28;46524;-66
2023/02/15 10:56:13;;;;;;;;;33.50;30.00;;;;;22.73;35.99;102022.50;4955138;28;45356;-65
2023/02/15 10:59:00;;;;;;;;;35.50;30.50;;;;;22.73;35.69;102009.16;4959439;28;45434;-66
2023/02/15 11:01:28;;;;;;;;;31.75;28.25;;;;;22.75;35.87;102017.94;4960583;28;45276;-66
2023/02/15 11:04:15;;;;;;;;;32.50;27.75;;;;;22.76;36.12;102013.44;4950204;28;47762;-65
2023/02/15 11:06:48;;;;;;;;;24.00;22.00;;;;;22.77;36.14;102008.97;4950099;28;45605;-66
2023/02/15 11:09:16;;;;;;;;;27.50;25.25;;;;;22.75;35.69;102003.72;4960160;28;45351;-66
2023/02/15 11:11:43;;;;;;;;;30.50;26.75;;;;;22.78;35.86;102010.69;4956127;28;45504;-65
2023/02/15 11:14:20;;;;;;;;;36.00;26.50;;;;;22.79;35.66;102013.28;4959894;28;47033;-65
2023/02/15 11:16:49;;;;;;;;;28.25;26.00;;;;;22.77;35.76;102008.97;4955720;28;45949;-66
2023/02/15 11:19:22;;;;;;;;;29.75;28.75;;;;;22.80;35.88;102016.78;4956277;28;45401;-66
2023/02/15 11:21:51;;;;;;;;;37.00;30.00;;;;;22.82;35.91;102017.56;5038712;28;45438;-66
2023/02/15 11:24:19;;;;;;;;;29.75;26.50;;;;;22.83;35.86;102006.81;4953452;28;45448;-66
2023/02/15 11:26:54;;;;;;;;;29.00;24.00;;;;;22.83;35.76;102004.13;4959659;28;45707;-67
2023/02/15 11:29:36;;;;;;;;;29.75;26.50;;;;;22.84;35.43;101996.97;4955469;28;45511;-66
2023/02/15 11:32:19;;;;;;;;;30.75;27.00;;;;;22.83;35.37;101990.78;4951249;28;45415;-66
2023/02/15 11:35:11;;;;;;;;;28.75;27.25;;;;;22.84;35.97;101994.31;4951712;28;46418;-66
2023/02/15 11:37:50;;;;;;;;;27.50;26.00;;;;;22.84;35.25;101987.19;4975064;28;45389;-64
2023/02/15 11:40:20;;;;;;;;;28.75;23.25;;;;;22.85;35.74;101996.03;4964922;28;45588;-66
2023/02/15 11:42:49;;;;;;;;;26.75;24.75;;;;;22.86;35.88;101997.75;4956271;28;45257;-66